x

Nantucket Sound (44020) Wave Buoy

2:50 - Tue 24th May 2016 All times are EDT. -4 hours from GMT.

  • Sig Wave height 1.6ft
  • Swell Direction
  • Peak Period 8s
  • Average Period 4s
  • Wind
    13mph, 16mph gusts
  • Sea Temp 56°f
  • Air Temp 56°f
  • Sea Pressure 1011.8mb
  • Nantucket Sound
  • Nantucket Sound

More Historic Weather Station data

Upgrade to MSW Pro to gain access to the past 30 days of data for over 8000 Wavebouys and Weather Stations around the globe.

Join Pro

Comparision Forecast

View Surf forecast
   
mar. 05/24 2:50 1.6ft 8s 4s 13 16 mph 1011.8mb 56f 56f
1:50 1.6ft 8s 4s 7 11 mph 1012mb 56f 56f
12:50 1.3ft 4s 4s 9 13 mph 1012.3mb 56f 54f
11:50 1.3ft 3s 3s 11 13 mph 1012.1mb 56f 54f
10:50 1.3ft 3s 3s 13 16 mph 1011.8mb 55f 54f
9:50 1.3ft 3s 4s 13 16 mph 1011.2mb 54f 55f
8:50 1.3ft 4s 4s 9 11 mph 1010.9mb 53f 53f
7:50 2ft 4s 3s 16 18 mph 1010.8mb 53f 52f
6:50 2ft 3s 3s 18 20 mph 1011mb 53f 52f
5:50 2ft 3s 3s 18 20 mph 1010.7mb 53f 52f
4:50 2ft 3s 3s 16 18 mph 1010.5mb 54f 52f
3:50 1.6ft 10s 3s 20 22 mph 1010.4mb 55f 52f
2:50 1.6ft 10s 4s 16 20 mph 1010.8mb 56f 52f
1:50 1.6ft 9s 4s 13 16 mph 1011.2mb 56f 52f
12:50 1.6ft 9s 4s 9 11 mph 1011.7mb 56f 51f
lun. 05/23 11:50 1.3ft 7s 4s 9 11 mph 1011.9mb 56f 51f
10:50 1ft 6s 4s 13
mph
1011.4mb 56f 52f
9:50 1ft 5s 4s 9 11 mph 1011.9mb 55f 54f
8:50 1ft 5s 4s 11
mph
1011mb 55f 54f
7:50 1.3ft 3s 4s 9 11 mph 1011.9mb 54f 54f
6:50 1.6ft 3s 4s 9
mph
1012mb 54f 53f
5:50 2ft 3s 4s 13 16 mph 1011.6mb 54f 54f
4:50 1.6ft 8s 3s 18 20 mph 1011.9mb 55f 56f
3:50 1.6ft 8s 4s 13 16 mph 1011.7mb 56f 57f
2:50 2ft 4s 4s  -  mph 1011.9mb 57f 60f
1:50 1.6ft 4s 4s 9 11 mph 1011.6mb 57f 60f
12:50 1.3ft 4s 5s 4 7 mph 1012.2mb 56f 60f
11:50 1ft 9s 5s 7
mph
1012.4mb 56f 59f
10:50 1ft 5s 4s 7 9 mph 1012.2mb 55f 58f
9:50 1ft 4s 4s 4
mph
1012.6mb 55f 57f
8:50 1ft 5s 4s 7
mph
1012.9mb 54f 56f
7:50 1.3ft 5s 4s 9
mph
1012.7mb 53f 55f
6:50 1.3ft 5s  -  9 11 mph 1012.3mb 53f 55f
5:50 1.6ft 4s 4s 9 11 mph 1012.1mb 53f 54f
4:50 2ft 9s 4s 9 11 mph 1011.7mb 53f 55f
3:50 2ft 8s 4s 9 11 mph 1011.3mb 54f 55f
2:50 2.5ft 4s 4s 9
mph
1011.3mb 55f 55f
1:50 2ft 7s 4s 9
mph
1011.6mb 55f 55f
12:50 2ft 4s 4s 9 11 mph 1011.6mb 55f 55f
dim. 05/22 11:50 1.6ft 6s 4s 13 16 mph 1011.6mb 55f 55f
10:50 1.3ft 8s 4s 11
mph
1011.8mb 55f 55f
9:50 1.3ft 5s 4s 11 13 mph 1011.8mb 55f 55f
8:50 1.6ft 5s 4s 7 9 mph 1011.2mb 55f 55f
7:50 2ft 3s 4s 4 7 mph 1010.5mb 54f 56f
6:50 2ft 3s 4s 11 13 mph 1009.7mb 54f 56f
5:50 2.5ft 4s 4s 13 18 mph 1008.9mb 53f 54f
4:50 2.5ft 3s 4s 11 13 mph 1008.8mb 54f 55f
3:50 2.5ft 3s 4s 11 13 mph 1008.7mb 54f 56f
2:50 2.5ft 4s 4s 16 18 mph 1008.2mb 55f 56f
1:50 2.5ft 4s 4s 18 22 mph 1007.9mb 55f 56f
12:50 3ft 4s 4s 18 20 mph 1008mb 55f 55f
11:50 3ft 4s 4s 20 29 mph 1008.1mb 55f 55f
10:50 3ft 4s 4s 22 27 mph 1007.7mb 55f 55f
9:50 3ft 4s 4s 20 27 mph 1007.6mb 55f 55f
8:50 2.5ft 5s 4s 22 29 mph 1007.1mb 54f 55f
7:50 3.5ft 4s 4s 25 27 mph 1006.9mb 54f 54f
6:50 2.5ft 4s 4s 25 29 mph 1006.8mb 53f 54f
5:50 2ft 3s 3s 20 25 mph 1007.4mb 53f 54f
4:50 1.3ft 2s 3s 20 22 mph 1007.5mb 53f 53f
3:50 0.3ft  -  5s 16 20 mph 1009mb 54f 54f
2:50 0.7ft  -  4s 13
mph
1009.7mb 55f 55f
1:50 0.7ft  -  3s 11 13 mph 1010.7mb 55f 54f
12:50 1ft 8s 3s 9
mph
1012.4mb 55f 55f
sam. 05/21 11:50 1ft 3s 3s 13 16 mph 1013mb 55f 56f
10:50 1ft 3s 3s 9 11 mph 1014mb 55f 56f
9:50 0.3ft  -  4s 4 7 mph 1015.3mb 55f 56f
8:50 0.3ft  -  4s 4 7 mph 1015.7mb 55f 55f
7:50 0.7ft  -  4s 4
mph
1015.8mb 55f 55f
6:50 0.7ft  -  4s 4 7 mph 1016.7mb 54f 56f
5:50 0.7ft  -  4s 4
mph
1017.1mb 54f 56f
4:50 0.7ft  -  4s 9 11 mph 1017.7mb 54f 57f
3:50 1ft 2s 3s 7 9 mph 1018.3mb 55f 56f
2:50 1ft 4s 3s 11 13 mph 1018.8mb 55f 58f
1:50 1ft 3s 3s 11 13 mph 1019.4mb 55f 58f
12:50 1.3ft 8s 4s 13 16 mph 1020.3mb 56f 57f
11:50 1ft 8s 4s 13 16 mph 1020.8mb 56f 56f
10:50 0.7ft  -  4s 11 13 mph 1020.8mb 55f 56f
9:50 0.7ft  -  4s 11 13 mph 1021.2mb 55f 56f
8:50 0.3ft  -  4s 9 11 mph 1021.6mb 55f 56f
7:50 0.3ft  -  4s 9
mph
1021.8mb 54f 56f
6:50 0.7ft  -  4s 7 9 mph 1021.9mb 54f 56f
5:50 0.7ft  -  4s 9 11 mph 1021.7mb 53f 56f
4:50 0.7ft  -  4s 7 9 mph 1021.6mb 53f 55f
3:50 0.7ft  -  4s 4
mph
1021.7mb 53f 56f
2:50 1ft 8s 4s 7
mph
1022.1mb 54f 56f
1:50 1ft 6s 4s 9 11 mph 1022.3mb 55f 56f
12:50 1ft 8s 4s 9
mph
1022.7mb 55f 56f
ven. 05/20 11:50 1ft 7s 4s 9 11 mph 1022.8mb 55f 56f
10:50 0.7ft  -  5s 13 16 mph 1022.8mb 55f 56f
9:50 0.7ft  -  5s 11 13 mph 1022.7mb 55f 56f
8:50 0.7ft  -  5s 9 11 mph 1022.4mb 55f 56f